sensor_id;sensor_type;location;lat;lon;timestamp;pressure;altitude;pressure_sealevel;temperature;humidity
29941;BME280;16801;53.562;10.038;2023-01-30T00:00:48;100946.38;;;5.43;87.74
29941;BME280;16801;53.562;10.038;2023-01-30T00:04:09;100951.50;;;5.34;87.77
29941;BME280;16801;53.562;10.038;2023-01-30T00:07:33;100930.88;;;5.36;87.40
29941;BME280;16801;53.562;10.038;2023-01-30T00:10:55;100923.44;;;5.27;87.65
29941;BME280;16801;53.562;10.038;2023-01-30T00:14:16;100902.53;;;5.33;88.21
29941;BME280;16801;53.562;10.038;2023-01-30T00:17:37;100910.25;;;5.38;87.91
29941;BME280;16801;53.562;10.038;2023-01-30T00:21:00;100892.75;;;5.59;87.67
29941;BME280;16801;53.562;10.038;2023-01-30T00:24:22;100883.44;;;5.52;87.78
29941;BME280;16801;53.562;10.038;2023-01-30T00:27:43;100893.81;;;5.56;87.37
29941;BME280;16801;53.562;10.038;2023-01-30T00:31:04;100877.22;;;5.51;88.16
29941;BME280;16801;53.562;10.038;2023-01-30T00:34:26;100867.94;;;5.69;87.44
29941;BME280;16801;53.562;10.038;2023-01-30T00:37:47;100864.94;;;5.61;88.07
29941;BME280;16801;53.562;10.038;2023-01-30T00:41:09;100855.81;;;5.51;88.02
29941;BME280;16801;53.562;10.038;2023-01-30T00:44:32;100867.53;;;5.63;87.93
29941;BME280;16801;53.562;10.038;2023-01-30T00:48:10;100830.72;;;5.79;87.50
29941;BME280;16801;53.562;10.038;2023-01-30T00:51:31;100807.41;;;6.06;86.54
29941;BME280;16801;53.562;10.038;2023-01-30T00:54:52;100795.22;;;5.90;87.09
29941;BME280;16801;53.562;10.038;2023-01-30T00:58:14;100801.94;;;5.95;87.02
29941;BME280;16801;53.562;10.038;2023-01-30T01:01:36;100795.66;;;5.96;87.18
29941;BME280;16801;53.562;10.038;2023-01-30T01:04:57;100777.66;;;5.98;86.79
29941;BME280;16801;53.562;10.038;2023-01-30T01:08:19;100782.09;;;6.23;86.22
29941;BME280;16801;53.562;10.038;2023-01-30T01:11:40;100765.66;;;6.04;86.58
29941;BME280;16801;53.562;10.038;2023-01-30T01:15:03;100765.19;;;6.22;86.32
29941;BME280;16801;53.562;10.038;2023-01-30T01:18:24;100753.13;;;6.17;87.05
29941;BME280;16801;53.562;10.038;2023-01-30T01:21:45;100733.13;;;5.97;88.45
29941;BME280;16801;53.562;10.038;2023-01-30T01:25:07;100733.03;;;5.99;87.81
29941;BME280;16801;53.562;10.038;2023-01-30T01:28:28;100742.78;;;6.00;88.20
29941;BME280;16801;53.562;10.038;2023-01-30T01:31:50;100727.34;;;6.03;87.70
29941;BME280;16801;53.562;10.038;2023-01-30T01:35:11;100722.59;;;6.19;87.44
29941;BME280;16801;53.562;10.038;2023-01-30T01:38:32;100712.16;;;6.04;87.71
29941;BME280;16801;53.562;10.038;2023-01-30T01:41:53;100709.34;;;6.05;88.47
29941;BME280;16801;53.562;10.038;2023-01-30T01:45:16;100708.56;;;6.16;88.56
29941;BME280;16801;53.562;10.038;2023-01-30T01:48:41;100707.84;;;6.14;88.75
29941;BME280;16801;53.562;10.038;2023-01-30T01:52:07;100700.97;;;6.22;89.90
29941;BME280;16801;53.562;10.038;2023-01-30T01:55:29;100677.00;;;6.21;90.78
29941;BME280;16801;53.562;10.038;2023-01-30T01:58:54;100676.00;;;6.22;90.56
29941;BME280;16801;53.562;10.038;2023-01-30T02:02:17;100685.81;;;6.10;90.62
29941;BME280;16801;53.562;10.038;2023-01-30T02:05:45;100684.03;;;6.22;90.77
29941;BME280;16801;53.562;10.038;2023-01-30T02:09:08;100681.44;;;6.33;90.75
29941;BME280;16801;53.562;10.038;2023-01-30T02:12:30;100659.31;;;6.18;90.97
29941;BME280;16801;53.562;10.038;2023-01-30T02:15:51;100677.53;;;6.13;91.61
29941;BME280;16801;53.562;10.038;2023-01-30T02:19:23;100681.06;;;6.14;91.96
29941;BME280;16801;53.562;10.038;2023-01-30T02:27:35;100648.91;;;6.26;91.39
29941;BME280;16801;53.562;10.038;2023-01-30T02:31:15;100645.31;;;6.38;91.60
29941;BME280;16801;53.562;10.038;2023-01-30T02:34:45;100638.72;;;6.31;91.69
29941;BME280;16801;53.562;10.038;2023-01-30T02:38:22;100630.84;;;6.41;91.43
29941;BME280;16801;53.562;10.038;2023-01-30T02:41:50;100635.47;;;6.39;91.70
29941;BME280;16801;53.562;10.038;2023-01-30T02:45:21;100608.69;;;6.39;91.75
29941;BME280;16801;53.562;10.038;2023-01-30T02:48:46;100615.41;;;6.44;91.63
29941;BME280;16801;53.562;10.038;2023-01-30T02:52:10;100600.63;;;6.63;90.95
29941;BME280;16801;53.562;10.038;2023-01-30T02:55:32;100602.16;;;6.54;91.70
29941;BME280;16801;53.562;10.038;2023-01-30T02:58:58;100582.81;;;6.62;91.18
29941;BME280;16801;53.562;10.038;2023-01-30T03:02:46;100583.06;;;6.59;91.26
29941;BME280;16801;53.562;10.038;2023-01-30T03:06:36;100567.75;;;6.72;91.14
29941;BME280;16801;53.562;10.038;2023-01-30T03:10:07;100582.88;;;6.84;90.87
29941;BME280;16801;53.562;10.038;2023-01-30T03:13:48;100570.41;;;6.72;91.33
29941;BME280;16801;53.562;10.038;2023-01-30T03:17:13;100585.75;;;6.70;91.99
29941;BME280;16801;53.562;10.038;2023-01-30T03:20:38;100563.66;;;6.90;91.90
29941;BME280;16801;53.562;10.038;2023-01-30T03:24:00;100553.16;;;6.87;92.41
29941;BME280;16801;53.562;10.038;2023-01-30T03:27:22;100539.38;;;6.80;91.63
29941;BME280;16801;53.562;10.038;2023-01-30T03:30:43;100544.53;;;6.94;91.54
29941;BME280;16801;53.562;10.038;2023-01-30T03:34:04;100534.28;;;6.99;91.21
29941;BME280;16801;53.562;10.038;2023-01-30T03:37:25;100533.56;;;6.97;91.83
29941;BME280;16801;53.562;10.038;2023-01-30T03:40:48;100545.97;;;6.87;92.36
29941;BME280;16801;53.562;10.038;2023-01-30T03:44:10;100511.38;;;6.95;91.71
29941;BME280;16801;53.562;10.038;2023-01-30T03:47:34;100518.81;;;6.92;92.48
29941;BME280;16801;53.562;10.038;2023-01-30T03:50:55;100498.50;;;7.00;92.54
29941;BME280;16801;53.562;10.038;2023-01-30T03:54:16;100506.19;;;8.63;84.46
29941;BME280;16801;53.562;10.038;2023-01-30T03:57:39;100501.19;;;8.18;88.03
29941;BME280;16801;53.562;10.038;2023-01-30T04:00:59;100494.97;;;8.17;87.97
29941;BME280;16801;53.562;10.038;2023-01-30T04:04:21;100507.16;;;8.21;87.47
29941;BME280;16801;53.562;10.038;2023-01-30T04:07:42;100503.13;;;8.16;86.57
29941;BME280;16801;53.562;10.038;2023-01-30T04:11:03;100498.03;;;8.13;87.75
29941;BME280;16801;53.562;10.038;2023-01-30T04:14:26;100493.84;;;8.20;87.43
29941;BME280;16801;53.562;10.038;2023-01-30T04:18:05;100497.28;;;8.42;85.96
29941;BME280;16801;53.562;10.038;2023-01-30T04:21:45;100492.56;;;8.35;86.73
29941;BME280;16801;53.562;10.038;2023-01-30T04:25:07;100496.44;;;8.72;84.94
29941;BME280;16801;53.562;10.038;2023-01-30T04:28:29;100518.41;;;8.77;84.85
29941;BME280;16801;53.562;10.038;2023-01-30T04:31:52;100502.06;;;8.59;85.68
29941;BME280;16801;53.562;10.038;2023-01-30T04:35:16;100509.66;;;9.05;83.33
29941;BME280;16801;53.562;10.038;2023-01-30T04:38:37;100502.41;;;9.06;82.90
29941;BME280;16801;53.562;10.038;2023-01-30T04:41:59;100513.31;;;9.14;83.00
29941;BME280;16801;53.562;10.038;2023-01-30T04:45:21;100510.50;;;9.64;80.84
29941;BME280;16801;53.562;10.038;2023-01-30T04:48:45;100515.50;;;9.88;79.24
29941;BME280;16801;53.562;10.038;2023-01-30T04:52:06;100509.34;;;9.57;80.49
29941;BME280;16801;53.562;10.038;2023-01-30T04:55:29;100508.81;;;9.63;80.29
29941;BME280;16801;53.562;10.038;2023-01-30T04:58:50;100499.28;;;9.01;81.91
29941;BME280;16801;53.562;10.038;2023-01-30T05:02:11;100496.69;;;8.90;82.57
29941;BME280;16801;53.562;10.038;2023-01-30T05:05:34;100502.88;;;8.60;83.68
29941;BME280;16801;53.562;10.038;2023-01-30T05:08:55;100490.81;;;8.75;82.63
29941;BME280;16801;53.562;10.038;2023-01-30T05:12:16;100509.34;;;9.08;82.21
29941;BME280;16801;53.562;10.038;2023-01-30T05:15:38;100504.75;;;9.20;80.93
29941;BME280;16801;53.562;10.038;2023-01-30T05:18:59;100507.94;;;8.74;81.03
29941;BME280;16801;53.562;10.038;2023-01-30T05:22:21;100497.41;;;9.41;80.13
29941;BME280;16801;53.562;10.038;2023-01-30T05:25:42;100512.41;;;8.94;79.91
29941;BME280;16801;53.562;10.038;2023-01-30T05:29:03;100504.44;;;9.13;80.12
29941;BME280;16801;53.562;10.038;2023-01-30T05:32:24;100502.78;;;8.92;80.25
29941;BME280;16801;53.562;10.038;2023-01-30T05:35:46;100496.94;;;9.26;79.46
29941;BME280;16801;53.562;10.038;2023-01-30T05:39:08;100490.44;;;9.19;79.17
29941;BME280;16801;53.562;10.038;2023-01-30T05:42:29;100507.91;;;8.95;78.79
29941;BME280;16801;53.562;10.038;2023-01-30T05:45:51;100504.38;;;9.04;79.21
29941;BME280;16801;53.562;10.038;2023-01-30T05:49:13;100499.28;;;9.01;79.33
29941;BME280;16801;53.562;10.038;2023-01-30T05:52:34;100504.44;;;8.83;78.78
29941;BME280;16801;53.562;10.038;2023-01-30T05:55:57;100496.94;;;9.17;77.69
29941;BME280;16801;53.562;10.038;2023-01-30T05:59:19;100492.06;;;9.01;77.75
29941;BME280;16801;53.562;10.038;2023-01-30T06:02:40;100483.94;;;9.22;75.50
29941;BME280;16801;53.562;10.038;2023-01-30T06:06:01;100488.44;;;8.81;76.67
29941;BME280;16801;53.562;10.038;2023-01-30T06:09:22;100483.69;;;8.64;77.29
29941;BME280;16801;53.562;10.038;2023-01-30T06:12:44;100485.44;;;8.75;76.25
29941;BME280;16801;53.562;10.038;2023-01-30T06:16:06;100491.06;;;8.72;76.27
29941;BME280;16801;53.562;10.038;2023-01-30T06:19:26;100474.44;;;8.78;75.75
29941;BME280;16801;53.562;10.038;2023-01-30T06:22:48;100485.81;;;8.40;77.00
29941;BME280;16801;53.562;10.038;2023-01-30T06:26:09;100495.63;;;8.71;76.03
29941;BME280;16801;53.562;10.038;2023-01-30T06:29:31;100506.25;;;8.32;76.34
29941;BME280;16801;53.562;10.038;2023-01-30T06:32:52;100511.25;;;8.36;77.54
29941;BME280;16801;53.562;10.038;2023-01-30T06:36:13;100514.66;;;8.38;77.73
29941;BME280;16801;53.562;10.038;2023-01-30T06:39:33;100507.28;;;8.20;78.21
29941;BME280;16801;53.562;10.038;2023-01-30T06:42:54;100520.47;;;8.12;77.88
29941;BME280;16801;53.562;10.038;2023-01-30T06:46:16;100511.97;;;8.38;78.25
29941;BME280;16801;53.562;10.038;2023-01-30T06:49:37;100515.56;;;8.28;78.17
29941;BME280;16801;53.562;10.038;2023-01-30T06:53:01;100513.75;;;8.17;77.88
29941;BME280;16801;53.562;10.038;2023-01-30T06:56:21;100516.06;;;7.90;79.31
29941;BME280;16801;53.562;10.038;2023-01-30T06:59:42;100525.06;;;8.00;78.00
29941;BME280;16801;53.562;10.038;2023-01-30T07:03:04;100520.78;;;7.97;78.76
29941;BME280;16801;53.562;10.038;2023-01-30T07:06:26;100524.94;;;8.22;77.26
29941;BME280;16801;53.562;10.038;2023-01-30T07:09:46;100534.44;;;7.74;78.75
29941;BME280;16801;53.562;10.038;2023-01-30T07:13:07;100535.97;;;8.19;77.31
29941;BME280;16801;53.562;10.038;2023-01-30T07:16:28;100522.50;;;8.30;76.75
29941;BME280;16801;53.562;10.038;2023-01-30T07:19:50;100531.16;;;8.23;77.21
29941;BME280;16801;53.562;10.038;2023-01-30T07:23:11;100519.56;;;8.22;76.77
29941;BME280;16801;53.562;10.038;2023-01-30T07:26:32;100514.31;;;8.32;75.05
29941;BME280;16801;53.562;10.038;2023-01-30T07:29:53;100517.53;;;7.94;77.18
29941;BME280;16801;53.562;10.038;2023-01-30T07:33:14;100523.81;;;8.04;76.27
29941;BME280;16801;53.562;10.038;2023-01-30T07:36:36;100511.78;;;7.98;76.53
29941;BME280;16801;53.562;10.038;2023-01-30T07:39:57;100521.75;;;7.76;76.85
29941;BME280;16801;53.562;10.038;2023-01-30T07:43:17;100520.81;;;7.86;76.79
29941;BME280;16801;53.562;10.038;2023-01-30T07:46:39;100518.25;;;7.96;76.95
29941;BME280;16801;53.562;10.038;2023-01-30T07:50:00;100518.50;;;8.14;76.59
29941;BME280;16801;53.562;10.038;2023-01-30T07:53:22;100518.31;;;8.05;76.53
29941;BME280;16801;53.562;10.038;2023-01-30T07:56:43;100527.03;;;8.50;76.18
29941;BME280;16801;53.562;10.038;2023-01-30T08:00:06;100524.28;;;8.09;76.89
29941;BME280;16801;53.562;10.038;2023-01-30T08:03:29;100524.53;;;8.38;75.98
29941;BME280;16801;53.562;10.038;2023-01-30T08:06:50;100538.44;;;8.11;76.72
29941;BME280;16801;53.562;10.038;2023-01-30T08:10:12;100527.16;;;8.49;75.61
29941;BME280;16801;53.562;10.038;2023-01-30T08:13:33;100526.53;;;8.25;74.92
29941;BME280;16801;53.562;10.038;2023-01-30T08:16:55;100513.31;;;8.53;74.88
29941;BME280;16801;53.562;10.038;2023-01-30T08:20:16;100528.28;;;8.15;75.76
29941;BME280;16801;53.562;10.038;2023-01-30T08:23:37;100533.13;;;8.32;74.71
29941;BME280;16801;53.562;10.038;2023-01-30T08:26:59;100533.19;;;8.09;75.65
29941;BME280;16801;53.562;10.038;2023-01-30T08:30:21;100510.78;;;7.99;75.45
29941;BME280;16801;53.562;10.038;2023-01-30T08:33:42;100534.56;;;8.56;74.41
29941;BME280;16801;53.562;10.038;2023-01-30T08:37:02;100532.16;;;8.83;72.09
29941;BME280;16801;53.562;10.038;2023-01-30T08:40:23;100505.69;;;8.49;72.77
29941;BME280;16801;53.562;10.038;2023-01-30T08:43:45;100530.59;;;8.81;71.94
29941;BME280;16801;53.562;10.038;2023-01-30T08:47:06;100521.31;;;8.44;73.19
29941;BME280;16801;53.562;10.038;2023-01-30T08:50:27;100523.00;;;8.86;72.21
29941;BME280;16801;53.562;10.038;2023-01-30T08:53:48;100533.50;;;8.48;74.29
29941;BME280;16801;53.562;10.038;2023-01-30T08:57:10;100534.88;;;9.73;70.09
29941;BME280;16801;53.562;10.038;2023-01-30T09:00:32;100537.06;;;10.17;67.72
29941;BME280;16801;53.562;10.038;2023-01-30T09:03:52;100517.16;;;9.11;70.39
29941;BME280;16801;53.562;10.038;2023-01-30T09:07:13;100523.50;;;10.84;66.81
29941;BME280;16801;53.562;10.038;2023-01-30T09:10:34;100526.56;;;10.33;66.87
29941;BME280;16801;53.562;10.038;2023-01-30T09:13:55;100543.28;;;9.00;70.89
29941;BME280;16801;53.562;10.038;2023-01-30T09:17:18;100515.44;;;9.10;70.61
29941;BME280;16801;53.562;10.038;2023-01-30T09:20:39;100523.84;;;8.66;72.11
29941;BME280;16801;53.562;10.038;2023-01-30T09:24:00;100533.53;;;9.38;69.35
29941;BME280;16801;53.562;10.038;2023-01-30T09:27:21;100543.34;;;9.09;69.86
29941;BME280;16801;53.562;10.038;2023-01-30T09:30:42;100514.38;;;8.92;70.61
29941;BME280;16801;53.562;10.038;2023-01-30T09:34:04;100527.41;;;9.27;69.42
29941;BME280;16801;53.562;10.038;2023-01-30T09:37:25;100520.84;;;8.80;70.88
29941;BME280;16801;53.562;10.038;2023-01-30T09:40:52;100506.94;;;9.05;70.79
29941;BME280;16801;53.562;10.038;2023-01-30T09:44:34;100503.41;;;9.54;69.84
29941;BME280;16801;53.562;10.038;2023-01-30T09:48:08;100495.31;;;10.69;66.57
29941;BME280;16801;53.562;10.038;2023-01-30T09:51:44;100482.06;;;11.66;64.23
29941;BME280;16801;53.562;10.038;2023-01-30T09:55:15;100474.41;;;12.32;58.31
29941;BME280;16801;53.562;10.038;2023-01-30T09:58:43;100493.09;;;9.68;67.76
29941;BME280;16801;53.562;10.038;2023-01-30T10:02:21;100493.59;;;9.43;68.35
29941;BME280;16801;53.562;10.038;2023-01-30T10:05:47;100501.56;;;9.54;68.28
29941;BME280;16801;53.562;10.038;2023-01-30T10:09:14;100514.19;;;9.83;68.66
29941;BME280;16801;53.562;10.038;2023-01-30T10:12:44;100499.53;;;9.28;69.08
29941;BME280;16801;53.562;10.038;2023-01-30T10:16:12;100498.97;;;9.34;72.13
29941;BME280;16801;53.562;10.038;2023-01-30T10:19:46;100484.53;;;8.95;72.95
29941;BME280;16801;53.562;10.038;2023-01-30T10:23:29;100483.53;;;9.36;73.23
29941;BME280;16801;53.562;10.038;2023-01-30T10:26:55;100494.25;;;9.26;73.17
29941;BME280;16801;53.562;10.038;2023-01-30T10:30:17;100495.06;;;8.27;74.55
29941;BME280;16801;53.562;10.038;2023-01-30T10:33:42;100462.97;;;7.93;75.68
29941;BME280;16801;53.562;10.038;2023-01-30T10:37:06;100461.47;;;7.48;77.25
29941;BME280;16801;53.562;10.038;2023-01-30T10:40:33;100461.19;;;7.51;75.89
29941;BME280;16801;53.562;10.038;2023-01-30T10:44:02;100461.75;;;8.39;74.15
29941;BME280;16801;53.562;10.038;2023-01-30T10:47:32;100451.22;;;8.26;73.08
29941;BME280;16801;53.562;10.038;2023-01-30T10:51:03;100431.22;;;10.90;63.60
29941;BME280;16801;53.562;10.038;2023-01-30T10:54:30;100441.81;;;9.60;70.67
29941;BME280;16801;53.562;10.038;2023-01-30T10:57:57;100437.56;;;8.99;70.83
29941;BME280;16801;53.562;10.038;2023-01-30T11:01:24;100440.69;;;8.64;73.59
29941;BME280;16801;53.562;10.038;2023-01-30T11:04:50;100476.44;;;7.82;76.29
29941;BME280;16801;53.562;10.038;2023-01-30T11:08:24;100501.09;;;8.40;74.87
29941;BME280;16801;53.562;10.038;2023-01-30T11:11:48;100510.22;;;8.17;75.06
29941;BME280;16801;53.562;10.038;2023-01-30T11:15:09;100502.25;;;7.74;76.08
29941;BME280;16801;53.562;10.038;2023-01-30T11:18:32;100502.16;;;8.17;74.37
29941;BME280;16801;53.562;10.038;2023-01-30T11:22:04;100495.38;;;8.01;75.58
29941;BME280;16801;53.562;10.038;2023-01-30T11:25:25;100519.38;;;8.14;75.52
29941;BME280;16801;53.562;10.038;2023-01-30T11:28:46;100501.69;;;8.12;75.22
29941;BME280;16801;53.562;10.038;2023-01-30T11:32:12;100515.66;;;8.26;75.57
29941;BME280;16801;53.562;10.038;2023-01-30T11:35:40;100505.66;;;8.28;74.79
29941;BME280;16801;53.562;10.038;2023-01-30T11:39:03;100498.41;;;8.40;74.89
29941;BME280;16801;53.562;10.038;2023-01-30T11:42:42;100510.78;;;7.99;75.19
29941;BME280;16801;53.562;10.038;2023-01-30T11:46:05;100510.00;;;8.08;74.86
29941;BME280;16801;53.562;10.038;2023-01-30T11:49:31;100512.78;;;9.69;71.33
29941;BME280;16801;53.562;10.038;2023-01-30T11:52:59;100503.28;;;9.75;69.33
29941;BME280;16801;53.562;10.038;2023-01-30T11:56:23;100483.53;;;11.06;66.01
29941;BME280;16801;53.562;10.038;2023-01-30T11:59:53;100473.34;;;15.90;52.26
29941;BME280;16801;53.562;10.038;2023-01-30T12:03:17;100457.41;;;14.15;52.93
29941;BME280;16801;53.562;10.038;2023-01-30T12:06:40;100453.00;;;14.54;54.39
29941;BME280;16801;53.562;10.038;2023-01-30T12:10:25;100441.69;;;15.05;51.55
29941;BME280;16801;53.562;10.038;2023-01-30T12:13:47;100437.03;;;14.67;53.58
29941;BME280;16801;53.562;10.038;2023-01-30T12:17:15;100448.69;;;13.55;56.68
29941;BME280;16801;53.562;10.038;2023-01-30T12:20:47;100448.09;;;11.19;63.03
29941;BME280;16801;53.562;10.038;2023-01-30T12:24:15;100453.97;;;10.31;66.53
29941;BME280;16801;53.562;10.038;2023-01-30T12:27:47;100463.31;;;9.41;70.33
29941;BME280;16801;53.562;10.038;2023-01-30T12:31:13;100455.63;;;9.37;71.28
29941;BME280;16801;53.562;10.038;2023-01-30T12:34:36;100483.28;;;9.48;71.42
29941;BME280;16801;53.562;10.038;2023-01-30T12:38:02;100492.47;;;11.34;63.21
29941;BME280;16801;53.562;10.038;2023-01-30T12:41:50;100483.06;;;10.84;64.00
29941;BME280;16801;53.562;10.038;2023-01-30T12:45:20;100502.19;;;10.25;66.58
29941;BME280;16801;53.562;10.038;2023-01-30T12:48:55;100486.03;;;11.72;62.61
29941;BME280;16801;53.562;10.038;2023-01-30T12:52:36;100490.50;;;11.26;63.81
29941;BME280;16801;53.562;10.038;2023-01-30T12:56:20;100496.47;;;10.57;65.95
29941;BME280;16801;53.562;10.038;2023-01-30T12:59:54;100489.53;;;11.27;65.15
29941;BME280;16801;53.562;10.038;2023-01-30T13:03:28;100493.22;;;11.26;63.39
29941;BME280;16801;53.562;10.038;2023-01-30T13:07:07;100495.69;;;10.83;64.66
29941;BME280;16801;53.562;10.038;2023-01-30T13:10:34;100490.66;;;10.52;65.34
29941;BME280;16801;53.562;10.038;2023-01-30T13:14:02;100493.34;;;10.52;65.52
29941;BME280;16801;53.562;10.038;2023-01-30T13:17:37;100495.34;;;10.50;65.95
29941;BME280;16801;53.562;10.038;2023-01-30T13:21:07;100490.97;;;10.01;67.24
29941;BME280;16801;53.562;10.038;2023-01-30T13:24:37;100501.75;;;9.91;66.95
29941;BME280;16801;53.562;10.038;2023-01-30T13:28:05;100500.66;;;10.13;66.16
29941;BME280;16801;53.562;10.038;2023-01-30T13:31:31;100510.41;;;10.33;65.03
29941;BME280;16801;53.562;10.038;2023-01-30T13:34:57;100513.81;;;10.16;65.32
29941;BME280;16801;53.562;10.038;2023-01-30T13:38:23;100509.69;;;9.74;66.43
29941;BME280;16801;53.562;10.038;2023-01-30T13:41:49;100494.16;;;9.28;68.33
29941;BME280;16801;53.562;10.038;2023-01-30T13:45:14;100516.88;;;9.63;68.97
29941;BME280;16801;53.562;10.038;2023-01-30T13:48:43;100508.81;;;9.63;69.08
29941;BME280;16801;53.562;10.038;2023-01-30T13:52:09;100529.94;;;9.87;69.47
29941;BME280;16801;53.562;10.038;2023-01-30T13:55:40;100559.41;;;9.30;70.32
29941;BME280;16801;53.562;10.038;2023-01-30T13:59:11;100564.78;;;9.30;70.54
29941;BME280;16801;53.562;10.038;2023-01-30T14:02:34;100580.88;;;9.50;71.59
29941;BME280;16801;53.562;10.038;2023-01-30T14:06:34;100571.38;;;9.46;71.09
29941;BME280;16801;53.562;10.038;2023-01-30T14:10:11;100586.25;;;9.50;70.03
29941;BME280;16801;53.562;10.038;2023-01-30T14:13:34;100584.91;;;9.75;69.34
29941;BME280;16801;53.562;10.038;2023-01-30T14:17:06;100589.41;;;9.65;68.96
29941;BME280;16801;53.562;10.038;2023-01-30T14:20:29;100589.97;;;9.29;70.57
29941;BME280;16801;53.562;10.038;2023-01-30T14:23:55;100605.00;;;9.31;70.28
29941;BME280;16801;53.562;10.038;2023-01-30T14:27:24;100619.00;;;9.25;71.00
29941;BME280;16801;53.562;10.038;2023-01-30T14:30:53;100609.59;;;9.50;70.58
29941;BME280;16801;53.562;10.038;2023-01-30T14:34:44;100652.09;;;9.46;70.99
29941;BME280;16801;53.562;10.038;2023-01-30T14:38:09;100648.13;;;9.50;70.52
29941;BME280;16801;53.562;10.038;2023-01-30T14:41:31;100660.41;;;9.43;70.08
29941;BME280;16801;53.562;10.038;2023-01-30T14:45:00;100661.66;;;9.39;69.95
29941;BME280;16801;53.562;10.038;2023-01-30T14:48:27;100697.44;;;9.51;70.21
29941;BME280;16801;53.562;10.038;2023-01-30T14:51:49;100694.94;;;9.38;69.92
29941;BME280;16801;53.562;10.038;2023-01-30T14:55:17;100703.19;;;9.46;69.13
29941;BME280;16801;53.562;10.038;2023-01-30T14:58:50;100731.53;;;9.81;68.23
29941;BME280;16801;53.562;10.038;2023-01-30T15:02:24;100722.03;;;9.77;67.58
29941;BME280;16801;53.562;10.038;2023-01-30T15:05:47;100742.03;;;9.53;67.87
29941;BME280;16801;53.562;10.038;2023-01-30T15:09:09;100760.00;;;9.74;67.54
29941;BME280;16801;53.562;10.038;2023-01-30T15:12:56;100753.94;;;9.51;66.68
29941;BME280;16801;53.562;10.038;2023-01-30T15:16:52;100769.00;;;9.63;66.40
29941;BME280;16801;53.562;10.038;2023-01-30T15:20:22;100789.09;;;9.38;66.74
29941;BME280;16801;53.562;10.038;2023-01-30T15:23:59;100804.53;;;9.36;66.73
29941;BME280;16801;53.562;10.038;2023-01-30T15:27:27;100818.63;;;9.49;66.54
29941;BME280;16801;53.562;10.038;2023-01-30T15:30:55;100830.25;;;9.71;65.75
29941;BME280;16801;53.562;10.038;2023-01-30T15:34:21;100839.75;;;9.54;64.83
29941;BME280;16801;53.562;10.038;2023-01-30T15:37:49;100853.88;;;9.88;64.00
29941;BME280;16801;53.562;10.038;2023-01-30T15:41:11;100864.91;;;9.85;63.81
29941;BME280;16801;53.562;10.038;2023-01-30T15:44:40;100868.13;;;9.79;64.58
29941;BME280;16801;53.562;10.038;2023-01-30T15:48:19;100874.75;;;9.95;64.26
29941;BME280;16801;53.562;10.038;2023-01-30T15:51:44;100883.34;;;9.68;64.93
29941;BME280;16801;53.562;10.038;2023-01-30T15:55:05;100909.56;;;9.66;65.57
29941;BME280;16801;53.562;10.038;2023-01-30T15:58:29;100906.00;;;9.66;65.43
29941;BME280;16801;53.562;10.038;2023-01-30T16:01:58;100921.88;;;9.48;66.22
29941;BME280;16801;53.562;10.038;2023-01-30T16:05:22;100920.25;;;9.57;65.29
29941;BME280;16801;53.562;10.038;2023-01-30T16:08:54;100934.28;;;9.60;65.55
29941;BME280;16801;53.562;10.038;2023-01-30T16:12:25;100929.00;;;9.38;66.19
29941;BME280;16801;53.562;10.038;2023-01-30T16:15:50;100960.28;;;9.39;66.54
29941;BME280;16801;53.562;10.038;2023-01-30T16:19:20;100979.91;;;9.30;67.02
29941;BME280;16801;53.562;10.038;2023-01-30T16:22:45;100962.38;;;9.36;66.28
29941;BME280;16801;53.562;10.038;2023-01-30T16:26:08;100970.25;;;9.28;67.38
29941;BME280;16801;53.562;10.038;2023-01-30T16:29:35;100973.59;;;9.52;66.42
29941;BME280;16801;53.562;10.038;2023-01-30T16:33:05;100983.41;;;9.42;66.96
29941;BME280;16801;53.562;10.038;2023-01-30T16:36:32;100989.88;;;9.39;67.39
29941;BME280;16801;53.562;10.038;2023-01-30T16:40:03;101005.00;;;9.51;67.45
29941;BME280;16801;53.562;10.038;2023-01-30T16:43:31;101013.94;;;9.52;67.58
29941;BME280;16801;53.562;10.038;2023-01-30T16:46:58;101011.53;;;9.49;66.95
29941;BME280;16801;53.562;10.038;2023-01-30T16:50:22;101027.81;;;9.25;67.98
29941;BME280;16801;53.562;10.038;2023-01-30T16:53:56;101012.19;;;9.08;67.81
29941;BME280;16801;53.562;10.038;2023-01-30T16:57:33;101042.28;;;9.13;67.12
29941;BME280;16801;53.562;10.038;2023-01-30T17:00:59;101070.38;;;9.09;67.62
29941;BME280;16801;53.562;10.038;2023-01-30T17:04:22;101090.41;;;9.16;67.11
29941;BME280;16801;53.562;10.038;2023-01-30T17:07:45;101097.50;;;8.95;67.22
29941;BME280;16801;53.562;10.038;2023-01-30T17:11:06;101120.63;;;9.09;66.66
29941;BME280;16801;53.562;10.038;2023-01-30T17:14:28;101110.25;;;9.15;65.78
29941;BME280;16801;53.562;10.038;2023-01-30T17:17:50;101124.03;;;9.00;65.66
29941;BME280;16801;53.562;10.038;2023-01-30T17:21:12;101129.91;;;9.16;64.65
29941;BME280;16801;53.562;10.038;2023-01-30T17:24:35;101127.34;;;9.03;65.10
29941;BME280;16801;53.562;10.038;2023-01-30T17:27:56;101152.78;;;9.21;64.71
29941;BME280;16801;53.562;10.038;2023-01-30T17:31:17;101152.06;;;9.19;65.13
29941;BME280;16801;53.562;10.038;2023-01-30T17:34:39;101158.25;;;9.09;65.54
29941;BME280;16801;53.562;10.038;2023-01-30T17:38:00;101159.63;;;9.25;66.15
29941;BME280;16801;53.562;10.038;2023-01-30T17:41:25;101157.75;;;9.04;65.82
29941;BME280;16801;53.562;10.038;2023-01-30T17:44:47;101170.47;;;8.91;66.03
29941;BME280;16801;53.562;10.038;2023-01-30T17:48:10;101165.91;;;8.80;66.21
29941;BME280;16801;53.562;10.038;2023-01-30T17:51:32;101168.59;;;8.80;66.40
29941;BME280;16801;53.562;10.038;2023-01-30T17:54:52;101160.34;;;9.05;65.08